Time;durP1;ratioP1;P1;durP2;ratioP2;P2;SDS_P1;SDS_P2;PMS_P1;PMS_P2;Temp;Humidity;BMP_temperature;BMP_pressure;BME280_temperature;BME280_humidity;BME280_pressure;Samples;Min_cycle;Max_cycle;Signal;HPM_P1;HPM_P2
2021/08/31 00:01:47;;;;;;;4.33;3.00;;;;;;;;;;5054034;28;20414;-58
2021/08/31 00:04:13;;;;;;;4.95;3.03;;;;;;;;;;5048134;28;20387;-57
2021/08/31 00:06:39;;;;;;;6.70;3.20;;;;;;;;;;5038469;28;20394;-57
2021/08/31 00:09:05;;;;;;;5.95;2.55;;;;;;;;;;5037892;28;20451;-53
2021/08/31 00:11:31;;;;;;;4.93;2.72;;;;;;;;;;5046118;28;20497;-53
2021/08/31 00:13:57;;;;;;;8.25;3.25;;;;;;;;;;5055242;28;20383;-56
2021/08/31 00:16:23;;;;;;;6.00;2.80;;;;;;;;;;5052126;28;20495;-55
2021/08/31 00:18:49;;;;;;;5.53;2.97;;;;;;;;;;5060722;28;20406;-55
2021/08/31 00:21:15;;;;;;;4.78;2.90;;;;;;;;;;5051348;28;20424;-60
2021/08/31 00:23:41;;;;;;;5.05;2.90;;;;;;;;;;5064522;28;20387;-59
2021/08/31 00:26:07;;;;;;;6.28;2.85;;;;;;;;;;5064384;28;20459;-58
2021/08/31 00:28:33;;;;;;;6.70;3.22;;;;;;;;;;5052879;28;20483;-58
2021/08/31 00:30:59;;;;;;;4.78;2.45;;;;;;;;;;5057434;28;20465;-57
2021/08/31 00:33:25;;;;;;;4.75;2.88;;;;;;;;;;5060794;28;20386;-55
2021/08/31 00:35:51;;;;;;;5.60;2.90;;;;;;;;;;5064854;28;20395;-57
2021/08/31 00:38:17;;;;;;;5.33;2.90;;;;;;;;;;5050353;28;20386;-58
2021/08/31 00:40:43;;;;;;;7.22;3.53;;;;;;;;;;5059064;28;20417;-59
2021/08/31 00:43:09;;;;;;;6.40;3.08;;;;;;;;;;5053637;28;20385;-59
2021/08/31 00:45:35;;;;;;;4.30;2.97;;;;;;;;;;5064082;28;20419;-58
2021/08/31 00:48:02;;;;;;;4.97;2.88;;;;;;;;;;5051970;28;20427;-55
2021/08/31 00:50:28;;;;;;;4.82;2.92;;;;;;;;;;5063237;28;20856;-57
2021/08/31 00:52:53;;;;;;;6.15;3.33;;;;;;;;;;5056361;28;20496;-57
2021/08/31 00:55:20;;;;;;;6.63;3.13;;;;;;;;;;5053589;28;20477;-59
2021/08/31 00:57:46;;;;;;;5.30;2.92;;;;;;;;;;5041400;28;20912;-56
2021/08/31 01:00:13;;;;;;;6.90;3.30;;;;;;;;;;5052015;28;20442;-57
2021/08/31 01:02:39;;;;;;;5.43;3.13;;;;;;;;;;5054438;28;20382;-54
2021/08/31 01:05:06;;;;;;;5.35;2.63;;;;;;;;;;5055823;28;20512;-56
2021/08/31 01:07:32;;;;;;;6.80;3.40;;;;;;;;;;5041531;28;20510;-59
2021/08/31 01:09:59;;;;;;;6.80;3.38;;;;;;;;;;5046727;28;20525;-59
2021/08/31 01:12:27;;;;;;;4.93;2.60;;;;;;;;;;5053328;28;20490;-59
2021/08/31 01:14:53;;;;;;;6.65;3.35;;;;;;;;;;5051190;28;20449;-58
2021/08/31 01:17:19;;;;;;;5.53;3.17;;;;;;;;;;5066728;28;20415;-57
2021/08/31 01:19:45;;;;;;;5.38;3.15;;;;;;;;;;5055996;28;20435;-59
2021/08/31 01:22:12;;;;;;;6.43;3.50;;;;;;;;;;5062386;28;20423;-59
2021/08/31 01:24:41;;;;;;;4.93;2.88;;;;;;;;;;5069312;28;20499;-57
2021/08/31 01:27:08;;;;;;;5.53;3.25;;;;;;;;;;5064697;28;20417;-58
2021/08/31 01:29:34;;;;;;;4.72;2.92;;;;;;;;;;5062595;28;20389;-59
2021/08/31 01:32:00;;;;;;;5.57;3.15;;;;;;;;;;5056383;28;20416;-59
2021/08/31 01:34:27;;;;;;;4.63;3.17;;;;;;;;;;5054450;28;20938;-58
2021/08/31 01:36:53;;;;;;;6.13;3.45;;;;;;;;;;5054884;28;20383;-55
2021/08/31 01:39:19;;;;;;;5.88;3.38;;;;;;;;;;5056305;28;20875;-56
2021/08/31 01:41:45;;;;;;;5.22;3.33;;;;;;;;;;5060502;28;20388;-54
2021/08/31 01:44:11;;;;;;;6.05;3.28;;;;;;;;;;5061012;28;20800;-57
2021/08/31 01:46:37;;;;;;;6.90;3.65;;;;;;;;;;5060240;28;20387;-57
2021/08/31 01:49:03;;;;;;;5.90;3.28;;;;;;;;;;5035615;28;21046;-55
2021/08/31 01:51:29;;;;;;;5.23;2.60;;;;;;;;;;5050150;28;20425;-58
2021/08/31 01:53:55;;;;;;;6.78;3.47;;;;;;;;;;5047344;28;20479;-57
2021/08/31 01:56:21;;;;;;;6.50;3.80;;;;;;;;;;5037720;28;20392;-57
2021/08/31 01:58:47;;;;;;;6.00;3.40;;;;;;;;;;5056365;28;20526;-59
2021/08/31 02:01:13;;;;;;;6.35;3.53;;;;;;;;;;5055454;28;20398;-59
2021/08/31 02:03:39;;;;;;;5.75;3.28;;;;;;;;;;5056986;28;20469;-57
2021/08/31 02:06:05;;;;;;;5.68;3.47;;;;;;;;;;5057146;28;20437;-59
2021/08/31 02:08:31;;;;;;;5.60;3.27;;;;;;;;;;5056738;28;20393;-58
2021/08/31 02:10:57;;;;;;;6.50;3.58;;;;;;;;;;5057790;28;20471;-59
2021/08/31 02:13:23;;;;;;;6.40;3.00;;;;;;;;;;5065954;28;20403;-59
2021/08/31 02:15:49;;;;;;;6.47;3.40;;;;;;;;;;5057483;28;20473;-54
2021/08/31 02:18:15;;;;;;;6.10;3.67;;;;;;;;;;5062013;28;20412;-56
2021/08/31 02:20:41;;;;;;;7.25;3.65;;;;;;;;;;5071841;28;20491;-59
2021/08/31 02:23:07;;;;;;;5.72;3.30;;;;;;;;;;5055888;28;20378;-55
2021/08/31 02:25:33;;;;;;;5.95;3.50;;;;;;;;;;5042006;28;21117;-55
2021/08/31 02:27:59;;;;;;;5.60;3.30;;;;;;;;;;5059692;28;20396;-55
2021/08/31 02:30:25;;;;;;;8.75;3.47;;;;;;;;;;5068884;28;20416;-57
2021/08/31 02:32:51;;;;;;;6.22;3.45;;;;;;;;;;5055580;28;20735;-56
2021/08/31 02:35:17;;;;;;;5.95;3.25;;;;;;;;;;5064706;28;20380;-55
2021/08/31 02:37:43;;;;;;;7.50;3.63;;;;;;;;;;5064632;28;20479;-58
2021/08/31 02:40:10;;;;;;;6.55;3.75;;;;;;;;;;5064538;28;20517;-53
2021/08/31 02:42:36;;;;;;;5.07;2.90;;;;;;;;;;5062524;28;20384;-56
2021/08/31 02:45:02;;;;;;;7.20;3.13;;;;;;;;;;5069114;28;20395;-56
2021/08/31 02:47:29;;;;;;;6.97;3.60;;;;;;;;;;5067830;28;20387;-59
2021/08/31 02:49:55;;;;;;;6.88;3.55;;;;;;;;;;5066275;28;20458;-59
2021/08/31 02:52:21;;;;;;;6.15;3.38;;;;;;;;;;5062775;28;20500;-59
2021/08/31 02:54:47;;;;;;;5.55;3.20;;;;;;;;;;5057669;28;20397;-58
2021/08/31 02:57:13;;;;;;;6.57;3.70;;;;;;;;;;5044336;28;20828;-57
2021/08/31 02:59:39;;;;;;;5.93;3.20;;;;;;;;;;5066360;28;20399;-58
2021/08/31 03:02:05;;;;;;;6.85;3.65;;;;;;;;;;5068153;28;20958;-57
2021/08/31 03:04:31;;;;;;;6.13;3.60;;;;;;;;;;5056787;28;20437;-56
2021/08/31 03:06:57;;;;;;;5.25;3.30;;;;;;;;;;5062705;28;20422;-57
2021/08/31 03:09:23;;;;;;;14.13;3.95;;;;;;;;;;5060951;28;20384;-54
2021/08/31 03:11:49;;;;;;;7.25;4.13;;;;;;;;;;5058500;28;20413;-56
2021/08/31 03:14:19;;;;;;;5.43;3.20;;;;;;;;;;5061593;28;20380;-57
2021/08/31 03:16:45;;;;;;;8.20;3.83;;;;;;;;;;5059066;28;20399;-59
2021/08/31 03:19:11;;;;;;;5.95;3.22;;;;;;;;;;5053561;28;20392;-57
2021/08/31 03:21:37;;;;;;;5.38;3.25;;;;;;;;;;5060700;28;20399;-58
2021/08/31 03:24:04;;;;;;;6.07;3.33;;;;;;;;;;5062004;28;20445;-53
2021/08/31 03:26:30;;;;;;;6.40;3.70;;;;;;;;;;5055932;28;20480;-57
2021/08/31 03:28:55;;;;;;;5.80;3.60;;;;;;;;;;5065339;28;20385;-54
2021/08/31 03:31:21;;;;;;;8.25;3.70;;;;;;;;;;5067275;28;20392;-57
2021/08/31 03:33:48;;;;;;;5.25;2.97;;;;;;;;;;5051953;28;20893;-57
2021/08/31 03:36:14;;;;;;;6.18;3.70;;;;;;;;;;5068390;28;20415;-59
2021/08/31 03:38:39;;;;;;;5.57;3.35;;;;;;;;;;5061228;28;20738;-57
2021/08/31 03:41:05;;;;;;;5.77;3.37;;;;;;;;;;5065075;28;20391;-59
2021/08/31 03:43:31;;;;;;;5.50;3.30;;;;;;;;;;5067041;28;20433;-56
2021/08/31 03:45:57;;;;;;;6.93;3.33;;;;;;;;;;5061432;28;20391;-58
2021/08/31 03:48:23;;;;;;;6.35;3.25;;;;;;;;;;5062034;28;20468;-57
2021/08/31 03:50:49;;;;;;;5.07;3.35;;;;;;;;;;5052894;28;20925;-59
2021/08/31 03:53:15;;;;;;;6.00;3.88;;;;;;;;;;5059177;28;21615;-59
2021/08/31 03:55:41;;;;;;;6.33;3.57;;;;;;;;;;5064711;28;20433;-59
2021/08/31 03:58:07;;;;;;;6.18;3.80;;;;;;;;;;5066411;28;20504;-53
2021/08/31 04:00:34;;;;;;;5.15;3.10;;;;;;;;;;5067064;28;20763;-55
2021/08/31 04:03:00;;;;;;;6.82;3.08;;;;;;;;;;5057591;28;20395;-53
2021/08/31 04:05:26;;;;;;;7.10;3.58;;;;;;;;;;5061682;28;20400;-54
2021/08/31 04:07:52;;;;;;;6.80;3.70;;;;;;;;;;5038886;28;20514;-54
2021/08/31 04:10:18;;;;;;;6.32;3.45;;;;;;;;;;5050794;28;20387;-57
2021/08/31 04:12:44;;;;;;;7.50;3.60;;;;;;;;;;5044677;28;20520;-55
2021/08/31 04:15:10;;;;;;;5.53;3.07;;;;;;;;;;5046431;28;20736;-54
2021/08/31 04:17:36;;;;;;;5.75;3.45;;;;;;;;;;5050407;28;20415;-59
2021/08/31 04:20:03;;;;;;;5.23;3.00;;;;;;;;;;5054210;28;20441;-55
2021/08/31 04:22:29;;;;;;;5.32;3.35;;;;;;;;;;5055342;28;20464;-57
2021/08/31 04:24:55;;;;;;;6.97;3.38;;;;;;;;;;5050259;28;20393;-53
2021/08/31 04:27:24;;;;;;;5.95;2.97;;;;;;;;;;5047640;28;20814;-53
2021/08/31 04:29:50;;;;;;;4.50;2.90;;;;;;;;;;5063940;28;20391;-55
2021/08/31 04:32:16;;;;;;;5.03;2.67;;;;;;;;;;5062291;28;21761;-58
2021/08/31 04:34:42;;;;;;;7.55;3.17;;;;;;;;;;5061918;28;20387;-54
2021/08/31 04:37:08;;;;;;;3.67;2.30;;;;;;;;;;5054319;28;20417;-59
2021/08/31 04:39:34;;;;;;;4.60;2.95;;;;;;;;;;5046042;28;20395;-59
2021/08/31 04:42:03;;;;;;;5.18;2.97;;;;;;;;;;5044544;28;21011;-59
2021/08/31 04:44:32;;;;;;;4.90;3.03;;;;;;;;;;5048881;28;20845;-59
2021/08/31 04:46:58;;;;;;;5.40;3.33;;;;;;;;;;5041883;28;20398;-58
2021/08/31 04:49:24;;;;;;;5.80;3.00;;;;;;;;;;5048261;28;20492;-58
2021/08/31 04:51:50;;;;;;;4.07;2.50;;;;;;;;;;5046645;28;20487;-57
2021/08/31 04:54:16;;;;;;;6.18;3.35;;;;;;;;;;5052060;28;20460;-56
2021/08/31 04:56:42;;;;;;;6.03;3.35;;;;;;;;;;5038589;28;20477;-58
2021/08/31 04:59:08;;;;;;;4.97;2.97;;;;;;;;;;5052288;28;20650;-56
2021/08/31 05:01:34;;;;;;;5.30;3.00;;;;;;;;;;5052301;28;20523;-58
2021/08/31 05:04:01;;;;;;;4.20;2.33;;;;;;;;;;5041561;28;20493;-53
2021/08/31 05:06:27;;;;;;;5.60;3.03;;;;;;;;;;5045024;28;20972;-56
2021/08/31 05:08:53;;;;;;;5.38;2.75;;;;;;;;;;5040218;28;20391;-55
2021/08/31 05:11:20;;;;;;;3.88;2.40;;;;;;;;;;5043766;28;20487;-54
2021/08/31 05:13:46;;;;;;;4.72;2.78;;;;;;;;;;5043306;28;20494;-57
2021/08/31 05:16:15;;;;;;;4.03;2.40;;;;;;;;;;5059364;28;20922;-54
2021/08/31 05:18:41;;;;;;;4.13;2.60;;;;;;;;;;5043753;28;20833;-52
2021/08/31 05:21:08;;;;;;;4.70;2.53;;;;;;;;;;5067544;28;20376;-57
2021/08/31 05:23:34;;;;;;;5.57;3.08;;;;;;;;;;5065645;28;20441;-53
2021/08/31 05:26:00;;;;;;;5.05;2.88;;;;;;;;;;5059960;28;20463;-57
2021/08/31 05:28:26;;;;;;;4.43;2.60;;;;;;;;;;5069731;28;20468;-59
2021/08/31 05:30:52;;;;;;;5.50;3.20;;;;;;;;;;5061147;28;20471;-58
2021/08/31 05:33:18;;;;;;;5.95;3.30;;;;;;;;;;5041223;28;20414;-59
2021/08/31 05:35:44;;;;;;;4.70;2.97;;;;;;;;;;5050971;28;20397;-59
2021/08/31 05:38:10;;;;;;;4.47;2.43;;;;;;;;;;5041865;28;20474;-57
2021/08/31 05:40:36;;;;;;;5.23;3.27;;;;;;;;;;5046173;28;20879;-59
2021/08/31 05:43:02;;;;;;;5.93;3.20;;;;;;;;;;5070269;28;20835;-54
2021/08/31 05:45:28;;;;;;;5.63;3.20;;;;;;;;;;5067357;28;20417;-59
2021/08/31 05:47:55;;;;;;;4.93;2.90;;;;;;;;;;5052448;28;20494;-58
2021/08/31 05:50:21;;;;;;;7.78;3.30;;;;;;;;;;5057427;28;20894;-56
2021/08/31 05:52:47;;;;;;;5.30;3.20;;;;;;;;;;5046025;28;21032;-54
2021/08/31 05:55:13;;;;;;;4.05;2.58;;;;;;;;;;5058353;28;20384;-54
2021/08/31 05:57:40;;;;;;;4.63;2.85;;;;;;;;;;5049680;28;20397;-54
2021/08/31 06:00:08;;;;;;;4.80;2.97;;;;;;;;;;5054474;28;20459;-55
2021/08/31 06:02:34;;;;;;;5.70;3.20;;;;;;;;;;5046138;28;20731;-57
2021/08/31 06:05:00;;;;;;;5.78;3.28;;;;;;;;;;5054089;28;20408;-58
2021/08/31 06:07:26;;;;;;;5.70;3.38;;;;;;;;;;5039785;28;20429;-55
2021/08/31 06:09:52;;;;;;;7.47;3.00;;;;;;;;;;5037630;28;20448;-54
2021/08/31 06:12:18;;;;;;;6.10;3.60;;;;;;;;;;5040284;28;20422;-56
2021/08/31 06:14:44;;;;;;;4.85;3.00;;;;;;;;;;5031671;28;20402;-59
2021/08/31 06:17:11;;;;;;;5.63;3.30;;;;;;;;;;5014103;28;20936;-58
2021/08/31 06:19:37;;;;;;;6.53;3.10;;;;;;;;;;5017772;28;20415;-58
2021/08/31 06:22:03;;;;;;;5.68;2.92;;;;;;;;;;5020229;28;20901;-58
2021/08/31 06:24:29;;;;;;;6.25;3.42;;;;;;;;;;5030634;28;20415;-56
2021/08/31 06:26:55;;;;;;;4.63;2.78;;;;;;;;;;5026378;28;20408;-58
2021/08/31 06:29:21;;;;;;;7.05;3.45;;;;;;;;;;5021845;28;20412;-59
2021/08/31 06:31:47;;;;;;;6.57;2.65;;;;;;;;;;5028351;28;20412;-58
2021/08/31 06:34:13;;;;;;;6.05;2.88;;;;;;;;;;5019416;28;20487;-57
2021/08/31 06:36:39;;;;;;;7.00;3.88;;;;;;;;;;5025735;28;20537;-59
2021/08/31 06:39:05;;;;;;;4.90;2.83;;;;;;;;;;5020727;28;20416;-56
2021/08/31 06:41:31;;;;;;;5.07;2.92;;;;;;;;;;5018703;28;20515;-54
2021/08/31 06:43:57;;;;;;;4.93;3.13;;;;;;;;;;5027760;28;20411;-53
2021/08/31 06:46:23;;;;;;;4.68;2.80;;;;;;;;;;5031717;28;20403;-52
2021/08/31 06:48:49;;;;;;;6.93;3.40;;;;;;;;;;5041885;28;20897;-57
2021/08/31 06:51:15;;;;;;;7.28;3.53;;;;;;;;;;5024164;28;20562;-54
2021/08/31 06:53:42;;;;;;;5.68;3.17;;;;;;;;;;5025762;28;20524;-55
2021/08/31 06:56:09;;;;;;;5.13;2.92;;;;;;;;;;5021424;28;20395;-57
2021/08/31 06:58:35;;;;;;;3.75;2.47;;;;;;;;;;5024763;28;20416;-55
2021/08/31 07:01:01;;;;;;;4.82;2.85;;;;;;;;;;5020791;28;20449;-57
2021/08/31 07:03:27;;;;;;;4.93;2.87;;;;;;;;;;5023095;28;20408;-59
2021/08/31 07:05:53;;;;;;;5.53;3.20;;;;;;;;;;5017980;28;20462;-58
2021/08/31 07:08:19;;;;;;;4.70;2.92;;;;;;;;;;5027239;28;20420;-59
2021/08/31 07:10:45;;;;;;;6.63;2.85;;;;;;;;;;5028322;28;20874;-58
2021/08/31 07:13:14;;;;;;;5.82;2.85;;;;;;;;;;5011283;28;21026;-59
2021/08/31 07:15:40;;;;;;;5.30;3.33;;;;;;;;;;5011788;28;20408;-57
2021/08/31 07:18:06;;;;;;;5.28;2.97;;;;;;;;;;5031097;28;20411;-55
2021/08/31 07:20:32;;;;;;;4.85;3.03;;;;;;;;;;5032222;28;20494;-58
2021/08/31 07:22:58;;;;;;;5.07;3.00;;;;;;;;;;5032884;28;20408;-58
2021/08/31 07:25:24;;;;;;;5.07;3.22;;;;;;;;;;5042378;28;20447;-59
2021/08/31 07:27:50;;;;;;;6.05;3.20;;;;;;;;;;5036635;28;20414;-57
2021/08/31 07:30:16;;;;;;;4.20;2.63;;;;;;;;;;5039203;28;20545;-59
2021/08/31 07:32:42;;;;;;;4.60;2.70;;;;;;;;;;5054413;28;21324;-54
2021/08/31 07:35:08;;;;;;;4.83;2.80;;;;;;;;;;5053997;28;20387;-60
2021/08/31 07:37:34;;;;;;;5.05;3.10;;;;;;;;;;5050301;28;20389;-57
2021/08/31 07:40:01;;;;;;;5.27;3.03;;;;;;;;;;5047891;28;20484;-56
2021/08/31 07:42:27;;;;;;;5.10;2.78;;;;;;;;;;5063551;28;20475;-59
2021/08/31 07:44:53;;;;;;;4.60;2.45;;;;;;;;;;5057493;28;20487;-57
2021/08/31 07:47:19;;;;;;;4.73;2.93;;;;;;;;;;5045559;28;20395;-59
2021/08/31 07:49:45;;;;;;;4.20;2.53;;;;;;;;;;5057249;28;20382;-59
2021/08/31 07:52:11;;;;;;;4.63;2.90;;;;;;;;;;5055733;28;20412;-58
2021/08/31 07:54:37;;;;;;;4.30;2.63;;;;;;;;;;5059508;28;21107;-59
2021/08/31 07:57:03;;;;;;;4.65;2.47;;;;;;;;;;5050969;28;20465;-60
2021/08/31 07:59:30;;;;;;;5.65;2.70;;;;;;;;;;5053301;28;20414;-60
2021/08/31 08:01:56;;;;;;;4.60;2.90;;;;;;;;;;5049579;28;20382;-55
2021/08/31 08:04:22;;;;;;;4.13;2.53;;;;;;;;;;5040200;28;20401;-58
2021/08/31 08:06:48;;;;;;;4.03;2.55;;;;;;;;;;5050908;28;20459;-55
2021/08/31 08:09:14;;;;;;;4.03;2.53;;;;;;;;;;5043224;28;20484;-58
2021/08/31 08:11:40;;;;;;;4.80;2.50;;;;;;;;;;5044902;28;20471;-59
2021/08/31 08:14:07;;;;;;;4.63;2.65;;;;;;;;;;5040280;28;20382;-57
2021/08/31 08:16:33;;;;;;;3.83;2.40;;;;;;;;;;5050931;28;20440;-56
2021/08/31 08:18:59;;;;;;;5.88;2.60;;;;;;;;;;5052728;28;20377;-54
2021/08/31 08:21:24;;;;;;;3.67;2.35;;;;;;;;;;5051872;28;20428;-53
2021/08/31 08:23:51;;;;;;;4.97;2.58;;;;;;;;;;5049804;28;20448;-55
2021/08/31 08:26:17;;;;;;;4.03;2.63;;;;;;;;;;5044253;28;20400;-57
2021/08/31 08:28:43;;;;;;;5.55;3.15;;;;;;;;;;5048699;28;20468;-58
2021/08/31 08:31:09;;;;;;;6.10;2.65;;;;;;;;;;5046375;28;20678;-59
2021/08/31 08:33:35;;;;;;;4.97;2.87;;;;;;;;;;5051919;28;20498;-59
2021/08/31 08:36:02;;;;;;;4.70;2.63;;;;;;;;;;5053813;28;20396;-56
2021/08/31 08:38:28;;;;;;;3.80;2.67;;;;;;;;;;5049374;28;20699;-59
2021/08/31 08:40:54;;;;;;;3.65;2.22;;;;;;;;;;5047041;28;20472;-59
2021/08/31 08:43:20;;;;;;;5.22;2.53;;;;;;;;;;5051188;28;20377;-59
2021/08/31 08:45:47;;;;;;;4.57;2.83;;;;;;;;;;5052189;28;20750;-59
2021/08/31 08:48:24;;;;;;;3.35;2.40;;;;;;;;;;5048713;28;20397;-58
2021/08/31 08:50:51;;;;;;;5.57;2.87;;;;;;;;;;5049163;28;20381;-58
2021/08/31 08:53:17;;;;;;;6.47;2.70;;;;;;;;;;5039287;28;20421;-58
2021/08/31 08:55:43;;;;;;;4.72;2.70;;;;;;;;;;5051122;28;20377;-59
2021/08/31 08:58:10;;;;;;;4.53;2.60;;;;;;;;;;5042971;28;20749;-59
2021/08/31 09:00:55;;;;;;;4.32;2.50;;;;;;;;;;5046972;28;20409;-58
2021/08/31 09:03:22;;;;;;;3.83;2.83;;;;;;;;;;5055909;28;20462;-58
2021/08/31 09:05:48;;;;;;;6.95;2.97;;;;;;;;;;5051300;28;20887;-53
2021/08/31 09:08:14;;;;;;;4.45;2.65;;;;;;;;;;5049997;28;20891;-54
2021/08/31 09:10:44;;;;;;;3.90;2.33;;;;;;;;;;5066453;28;20919;-59
2021/08/31 09:13:11;;;;;;;5.28;2.60;;;;;;;;;;5049544;28;20401;-53
2021/08/31 09:15:38;;;;;;;5.90;2.80;;;;;;;;;;5051382;28;20382;-53
2021/08/31 09:18:05;;;;;;;4.93;2.60;;;;;;;;;;5041769;28;20413;-52
2021/08/31 09:20:31;;;;;;;3.55;2.47;;;;;;;;;;5049857;28;20381;-55
2021/08/31 09:22:57;;;;;;;4.55;2.80;;;;;;;;;;5051871;28;20478;-56
2021/08/31 09:25:43;;;;;;;4.60;2.55;;;;;;;;;;5056847;28;20390;-57
2021/08/31 09:28:26;;;;;;;4.43;2.60;;;;;;;;;;5052781;28;20409;-58
2021/08/31 09:30:56;;;;;;;4.28;2.42;;;;;;;;;;5063921;28;20375;-54
2021/08/31 09:33:24;;;;;;;3.92;2.47;;;;;;;;;;5061908;28;20494;-55
2021/08/31 09:36:09;;;;;;;5.15;2.90;;;;;;;;;;5056653;28;20890;-53
2021/08/31 09:38:43;;;;;;;3.72;2.45;;;;;;;;;;5051415;28;20393;-53
2021/08/31 09:41:10;;;;;;;4.13;2.30;;;;;;;;;;5057473;28;20381;-54
2021/08/31 09:43:36;;;;;;;4.65;2.30;;;;;;;;;;5049346;28;20478;-54
2021/08/31 09:46:02;;;;;;;3.17;2.15;;;;;;;;;;5065363;28;20419;-55
2021/08/31 09:48:28;;;;;;;4.03;2.65;;;;;;;;;;5053533;28;20417;-56
2021/08/31 09:50:57;;;;;;;3.97;2.67;;;;;;;;;;5054100;28;20409;-57
2021/08/31 09:53:24;;;;;;;4.22;2.67;;;;;;;;;;5054372;28;20411;-56
2021/08/31 09:55:51;;;;;;;5.20;2.70;;;;;;;;;;5065920;28;20407;-53
2021/08/31 09:58:20;;;;;;;4.82;2.30;;;;;;;;;;5073076;28;20403;-52
2021/08/31 10:00:47;;;;;;;4.45;2.65;;;;;;;;;;5048905;28;20392;-57
2021/08/31 10:03:14;;;;;;;4.18;2.55;;;;;;;;;;5067941;28;20390;-55
2021/08/31 10:05:40;;;;;;;3.95;2.50;;;;;;;;;;5046117;28;20415;-58
2021/08/31 10:08:07;;;;;;;3.53;2.30;;;;;;;;;;5050938;28;20394;-58
2021/08/31 10:10:34;;;;;;;3.92;2.30;;;;;;;;;;5052338;28;20397;-57
2021/08/31 10:13:05;;;;;;;3.70;2.45;;;;;;;;;;5049883;28;20415;-58
2021/08/31 10:15:35;;;;;;;4.38;2.53;;;;;;;;;;5060917;28;20413;-58
2021/08/31 10:18:01;;;;;;;4.65;2.58;;;;;;;;;;5051479;28;20409;-58
2021/08/31 10:20:28;;;;;;;5.30;2.60;;;;;;;;;;5061842;28;20451;-58
2021/08/31 10:22:54;;;;;;;4.18;2.45;;;;;;;;;;5048562;28;21031;-56
2021/08/31 10:25:22;;;;;;;4.07;2.55;;;;;;;;;;5045140;28;20404;-56
2021/08/31 10:27:48;;;;;;;6.72;2.97;;;;;;;;;;5053048;28;20390;-53
2021/08/31 10:30:20;;;;;;;6.72;2.30;;;;;;;;;;5052962;28;20385;-58
2021/08/31 10:32:47;;;;;;;4.00;2.43;;;;;;;;;;5044935;28;20889;-52
2021/08/31 10:35:39;;;;;;;4.03;2.50;;;;;;;;;;5060745;28;20796;-54
2021/08/31 10:38:06;;;;;;;5.25;2.80;;;;;;;;;;5048271;28;20440;-54
2021/08/31 10:40:34;;;;;;;3.97;2.55;;;;;;;;;;5061975;28;20389;-58
2021/08/31 10:43:01;;;;;;;5.32;2.75;;;;;;;;;;5055835;28;20471;-53
2021/08/31 10:45:27;;;;;;;3.88;2.40;;;;;;;;;;5050708;28;20463;-53
2021/08/31 10:47:53;;;;;;;4.47;2.53;;;;;;;;;;5055791;28;20841;-55
2021/08/31 10:50:20;;;;;;;4.80;2.65;;;;;;;;;;5057997;28;20496;-53
2021/08/31 10:52:51;;;;;;;7.60;3.20;;;;;;;;;;5057030;28;20567;-55
2021/08/31 10:55:26;;;;;;;4.35;2.50;;;;;;;;;;5046021;28;21033;-53
2021/08/31 10:57:56;;;;;;;6.93;3.28;;;;;;;;;;5055044;28;20370;-56
2021/08/31 11:00:22;;;;;;;5.60;2.83;;;;;;;;;;5055599;28;20392;-53
2021/08/31 11:02:52;;;;;;;5.30;2.90;;;;;;;;;;5067051;28;20376;-54
2021/08/31 11:05:21;;;;;;;4.70;2.83;;;;;;;;;;5064074;28;20388;-58
2021/08/31 11:07:51;;;;;;;4.07;2.67;;;;;;;;;;5044040;28;20402;-54
2021/08/31 11:10:24;;;;;;;4.38;2.70;;;;;;;;;;5054007;28;20447;-55
2021/08/31 11:12:51;;;;;;;3.80;2.50;;;;;;;;;;5039017;28;20408;-57
2021/08/31 11:15:20;;;;;;;4.55;2.55;;;;;;;;;;5039059;28;20399;-56
2021/08/31 11:17:48;;;;;;;4.50;2.67;;;;;;;;;;5049899;28;20485;-55
2021/08/31 11:20:21;;;;;;;4.28;2.70;;;;;;;;;;5060805;28;20856;-56
2021/08/31 11:22:49;;;;;;;4.90;2.72;;;;;;;;;;5056407;28;20889;-57
2021/08/31 11:25:16;;;;;;;7.37;2.83;;;;;;;;;;5044632;28;20467;-59
2021/08/31 11:27:51;;;;;;;4.55;2.67;;;;;;;;;;5059685;28;20390;-58
2021/08/31 11:30:17;;;;;;;3.58;2.45;;;;;;;;;;5046855;28;20393;-59
2021/08/31 11:32:43;;;;;;;5.75;2.75;;;;;;;;;;5051664;28;20966;-58
2021/08/31 11:35:09;;;;;;;3.33;2.20;;;;;;;;;;5053724;28;20391;-58
2021/08/31 11:37:48;;;;;;;3.42;2.30;;;;;;;;;;5061010;28;20818;-54
2021/08/31 11:40:14;;;;;;;4.18;2.53;;;;;;;;;;5054316;28;20408;-55
2021/08/31 11:42:50;;;;;;;3.78;2.20;;;;;;;;;;5047485;28;20438;-57
2021/08/31 11:45:16;;;;;;;3.45;2.13;;;;;;;;;;5051461;28;20392;-58
2021/08/31 11:47:42;;;;;;;4.32;2.47;;;;;;;;;;5045931;28;20398;-58
2021/08/31 11:50:08;;;;;;;4.32;2.22;;;;;;;;;;5047340;28;20463;-57
2021/08/31 11:52:34;;;;;;;3.63;2.30;;;;;;;;;;5038890;28;20436;-57
2021/08/31 11:55:00;;;;;;;4.60;2.70;;;;;;;;;;5047150;28;20401;-57
2021/08/31 11:57:35;;;;;;;4.32;2.33;;;;;;;;;;5043336;28;20513;-54
2021/08/31 12:00:01;;;;;;;4.85;2.22;;;;;;;;;;5049098;28;20370;-57
2021/08/31 12:02:29;;;;;;;3.53;2.17;;;;;;;;;;5029991;28;20469;-57
2021/08/31 12:04:55;;;;;;;3.10;2.03;;;;;;;;;;5040801;28;20471;-54
2021/08/31 12:07:23;;;;;;;2.92;1.92;;;;;;;;;;5045118;28;20424;-52
2021/08/31 12:09:50;;;;;;;3.80;2.00;;;;;;;;;;5045772;28;20417;-57
2021/08/31 12:12:16;;;;;;;2.90;1.70;;;;;;;;;;5051573;28;20884;-58
2021/08/31 12:14:45;;;;;;;3.92;1.98;;;;;;;;;;5051514;28;22023;-56
2021/08/31 12:17:11;;;;;;;4.15;2.08;;;;;;;;;;5050911;28;20825;-54
2021/08/31 12:19:38;;;;;;;3.53;1.92;;;;;;;;;;5049351;28;20480;-58
2021/08/31 12:22:15;;;;;;;3.10;1.85;;;;;;;;;;5045823;28;20501;-56
2021/08/31 12:24:44;;;;;;;4.07;2.00;;;;;;;;;;5042561;28;20439;-56
2021/08/31 12:27:15;;;;;;;3.65;2.20;;;;;;;;;;5049749;28;20389;-58
2021/08/31 12:29:59;;;;;;;3.67;1.95;;;;;;;;;;5050709;28;20916;-58
2021/08/31 12:32:26;;;;;;;4.22;1.90;;;;;;;;;;5045300;28;20490;-52
2021/08/31 12:34:53;;;;;;;3.92;2.08;;;;;;;;;;5055003;28;20371;-53
2021/08/31 12:37:48;;;;;;;3.22;1.60;;;;;;;;;;5045410;28;20453;-57
2021/08/31 12:40:16;;;;;;;3.03;1.80;;;;;;;;;;5021469;28;20405;-56
2021/08/31 12:42:46;;;;;;;3.77;2.00;;;;;;;;;;5048519;28;20382;-57
2021/08/31 12:45:13;;;;;;;3.30;1.77;;;;;;;;;;5044824;28;20393;-55
2021/08/31 12:47:51;;;;;;;3.88;1.63;;;;;;;;;;5052141;28;20880;-53
2021/08/31 12:50:17;;;;;;;3.90;1.90;;;;;;;;;;5046768;28;20439;-56
2021/08/31 12:52:43;;;;;;;2.75;1.50;;;;;;;;;;5046197;28;20405;-54
2021/08/31 12:55:20;;;;;;;2.38;1.30;;;;;;;;;;5049716;28;20468;-57
2021/08/31 12:57:46;;;;;;;3.00;1.50;;;;;;;;;;5063943;28;20391;-56
2021/08/31 13:00:25;;;;;;;2.58;1.40;;;;;;;;;;5063586;28;20464;-58
2021/08/31 13:02:53;;;;;;;2.75;1.40;;;;;;;;;;5047117;28;20384;-58
2021/08/31 13:05:20;;;;;;;3.30;1.55;;;;;;;;;;5062462;28;20399;-57
2021/08/31 13:07:46;;;;;;;3.40;1.53;;;;;;;;;;5053727;28;20392;-57
2021/08/31 13:10:12;;;;;;;3.05;1.60;;;;;;;;;;5058427;28;20399;-56
2021/08/31 13:12:38;;;;;;;2.78;1.60;;;;;;;;;;5060054;28;20411;-58
2021/08/31 13:15:04;;;;;;;4.57;1.93;;;;;;;;;;5066329;28;20397;-53
2021/08/31 13:17:30;;;;;;;3.07;1.50;;;;;;;;;;5064913;28;20743;-55
2021/08/31 13:19:56;;;;;;;3.30;1.40;;;;;;;;;;5057374;28;20457;-57
2021/08/31 13:22:22;;;;;;;2.93;1.47;;;;;;;;;;5062314;28;20397;-53
2021/08/31 13:24:48;;;;;;;2.88;1.50;;;;;;;;;;5061684;28;20389;-56
2021/08/31 13:27:15;;;;;;;2.10;1.10;;;;;;;;;;5055625;28;20444;-55
2021/08/31 13:29:41;;;;;;;3.33;1.42;;;;;;;;;;5055243;28;20457;-52
2021/08/31 13:32:07;;;;;;;2.90;1.50;;;;;;;;;;5051577;28;20495;-57
2021/08/31 13:34:34;;;;;;;2.65;1.10;;;;;;;;;;5058190;28;20752;-55
2021/08/31 13:37:00;;;;;;;3.00;1.40;;;;;;;;;;5036382;28;20437;-55
2021/08/31 13:39:29;;;;;;;2.85;1.27;;;;;;;;;;5042351;28;20389;-55
2021/08/31 13:41:55;;;;;;;2.70;1.42;;;;;;;;;;5068034;28;20456;-54
2021/08/31 13:44:22;;;;;;;2.47;1.50;;;;;;;;;;5067046;28;20389;-52
2021/08/31 13:46:48;;;;;;;2.38;1.50;;;;;;;;;;5028880;28;20395;-50
2021/08/31 13:49:14;;;;;;;2.30;1.30;;;;;;;;;;5052761;28;20402;-53
2021/08/31 13:51:40;;;;;;;2.40;1.25;;;;;;;;;;5040032;28;20484;-57
2021/08/31 13:54:06;;;;;;;3.05;1.50;;;;;;;;;;5048749;28;20395;-57
2021/08/31 13:56:32;;;;;;;2.72;1.15;;;;;;;;;;5047374;28;20395;-58
2021/08/31 13:58:58;;;;;;;2.75;1.25;;;;;;;;;;5056548;28;20486;-56
2021/08/31 14:01:24;;;;;;;3.20;1.00;;;;;;;;;;5073212;28;20460;-57
2021/08/31 14:03:50;;;;;;;2.40;1.00;;;;;;;;;;5056077;28;20394;-58
2021/08/31 14:06:17;;;;;;;2.13;1.10;;;;;;;;;;5040918;28;20393;-55
2021/08/31 14:08:44;;;;;;;2.70;1.30;;;;;;;;;;5048852;28;20494;-56
2021/08/31 14:11:10;;;;;;;2.03;1.00;;;;;;;;;;5048505;28;20410;-55
2021/08/31 14:13:36;;;;;;;2.28;1.20;;;;;;;;;;5045151;28;20409;-55
2021/08/31 14:16:02;;;;;;;1.80;0.97;;;;;;;;;;5062333;28;20423;-55
2021/08/31 14:18:29;;;;;;;2.00;1.08;;;;;;;;;;5048042;28;20504;-55
2021/08/31 14:20:55;;;;;;;1.63;0.88;;;;;;;;;;5059753;28;20480;-52
2021/08/31 14:23:22;;;;;;;1.27;0.70;;;;;;;;;;5059705;28;20479;-56
2021/08/31 14:25:48;;;;;;;2.30;1.20;;;;;;;;;;5054476;28;20536;-52
2021/08/31 14:28:14;;;;;;;1.67;0.85;;;;;;;;;;5055553;28;20723;-57
2021/08/31 14:30:40;;;;;;;2.25;1.10;;;;;;;;;;5052972;28;20427;-56
2021/08/31 14:33:06;;;;;;;1.90;0.93;;;;;;;;;;5059765;28;20413;-54
2021/08/31 14:35:33;;;;;;;1.85;1.08;;;;;;;;;;5053674;28;20940;-53
2021/08/31 14:37:58;;;;;;;2.08;1.02;;;;;;;;;;5051457;28;20385;-56
2021/08/31 14:40:24;;;;;;;4.50;1.30;;;;;;;;;;5048189;28;20380;-58
2021/08/31 14:42:50;;;;;;;3.20;1.10;;;;;;;;;;5053467;28;20422;-57